sensor_id;sensor_type;location;lat;lon;timestamp;P1;durP1;ratioP1;P2;durP2;ratioP2
52918;SDS011;38793;52.690;6.812;2022-08-19T00:00:25;4.10;;;2.10;;
52918;SDS011;38793;52.690;6.812;2022-08-19T00:02:52;3.22;;;1.88;;
52918;SDS011;38793;52.690;6.812;2022-08-19T00:05:19;2.53;;;2.33;;
52918;SDS011;38793;52.690;6.812;2022-08-19T00:07:46;2.83;;;1.38;;
52918;SDS011;38793;52.690;6.812;2022-08-19T00:12:39;4.03;;;2.72;;
52918;SDS011;38793;52.690;6.812;2022-08-19T00:15:07;3.47;;;3.17;;
52918;SDS011;38793;52.690;6.812;2022-08-19T00:17:36;8.02;;;3.65;;
52918;SDS011;38793;52.690;6.812;2022-08-19T00:20:03;5.03;;;2.85;;
52918;SDS011;38793;52.690;6.812;2022-08-19T00:22:29;4.10;;;3.72;;
52918;SDS011;38793;52.690;6.812;2022-08-19T00:24:55;4.38;;;2.90;;
52918;SDS011;38793;52.690;6.812;2022-08-19T00:27:20;5.18;;;3.67;;
52918;SDS011;38793;52.690;6.812;2022-08-19T00:29:46;5.80;;;3.60;;
52918;SDS011;38793;52.690;6.812;2022-08-19T00:32:11;3.83;;;3.45;;
52918;SDS011;38793;52.690;6.812;2022-08-19T00:34:37;6.25;;;5.65;;
52918;SDS011;38793;52.690;6.812;2022-08-19T00:37:03;5.13;;;4.65;;
52918;SDS011;38793;52.690;6.812;2022-08-19T00:39:28;22.92;;;4.10;;
52918;SDS011;38793;52.690;6.812;2022-08-19T00:41:54;41.75;;;4.25;;
52918;SDS011;38793;52.690;6.812;2022-08-19T00:44:22;24.77;;;2.65;;
52918;SDS011;38793;52.690;6.812;2022-08-19T00:46:50;4.40;;;1.20;;
52918;SDS011;38793;52.690;6.812;2022-08-19T00:49:19;3.75;;;2.20;;
52918;SDS011;38793;52.690;6.812;2022-08-19T00:51:50;5.25;;;4.38;;
52918;SDS011;38793;52.690;6.812;2022-08-19T00:54:19;6.53;;;5.60;;
52918;SDS011;38793;52.690;6.812;2022-08-19T00:59:13;12.05;;;6.70;;
52918;SDS011;38793;52.690;6.812;2022-08-19T01:01:40;9.55;;;6.75;;
52918;SDS011;38793;52.690;6.812;2022-08-19T01:04:08;10.90;;;6.30;;
52918;SDS011;38793;52.690;6.812;2022-08-19T01:06:35;6.28;;;5.68;;
52918;SDS011;38793;52.690;6.812;2022-08-19T01:09:02;10.80;;;6.25;;
52918;SDS011;38793;52.690;6.812;2022-08-19T01:11:30;7.43;;;5.18;;
52918;SDS011;38793;52.690;6.812;2022-08-19T01:13:58;7.82;;;6.50;;
52918;SDS011;38793;52.690;6.812;2022-08-19T01:16:24;7.35;;;6.70;;
52918;SDS011;38793;52.690;6.812;2022-08-19T01:18:52;7.45;;;6.60;;
52918;SDS011;38793;52.690;6.812;2022-08-19T01:23:53;7.85;;;7.05;;
52918;SDS011;38793;52.690;6.812;2022-08-19T01:26:20;10.30;;;7.50;;
52918;SDS011;38793;52.690;6.812;2022-08-19T01:28:48;12.65;;;10.20;;
52918;SDS011;38793;52.690;6.812;2022-08-19T01:31:18;10.88;;;9.73;;
52918;SDS011;38793;52.690;6.812;2022-08-19T01:33:46;11.63;;;9.10;;
52918;SDS011;38793;52.690;6.812;2022-08-19T01:41:07;7.35;;;6.65;;
52918;SDS011;38793;52.690;6.812;2022-08-19T01:43:34;5.80;;;5.38;;
52918;SDS011;38793;52.690;6.812;2022-08-19T01:45:59;5.47;;;0.55;;
52918;SDS011;38793;52.690;6.812;2022-08-19T01:48:25;1.98;;;1.88;;
52918;SDS011;38793;52.690;6.812;2022-08-19T01:50:51;2.33;;;2.13;;
52918;SDS011;38793;52.690;6.812;2022-08-19T01:53:17;6.28;;;2.75;;
52918;SDS011;38793;52.690;6.812;2022-08-19T01:55:42;10.27;;;3.97;;
52918;SDS011;38793;52.690;6.812;2022-08-19T01:58:11;3.92;;;2.10;;
52918;SDS011;38793;52.690;6.812;2022-08-19T02:00:40;5.63;;;4.45;;
52918;SDS011;38793;52.690;6.812;2022-08-19T02:03:06;7.35;;;4.70;;
52918;SDS011;38793;52.690;6.812;2022-08-19T02:05:33;3.38;;;3.17;;
52918;SDS011;38793;52.690;6.812;2022-08-19T02:07:59;3.70;;;3.47;;
52918;SDS011;38793;52.690;6.812;2022-08-19T02:10:24;2.75;;;2.55;;
52918;SDS011;38793;52.690;6.812;2022-08-19T02:12:50;6.22;;;3.47;;
52918;SDS011;38793;52.690;6.812;2022-08-19T02:15:18;3.47;;;2.97;;
52918;SDS011;38793;52.690;6.812;2022-08-19T02:17:44;4.32;;;3.95;;
52918;SDS011;38793;52.690;6.812;2022-08-19T02:20:10;3.10;;;2.80;;
52918;SDS011;38793;52.690;6.812;2022-08-19T02:22:38;2.75;;;2.55;;
52918;SDS011;38793;52.690;6.812;2022-08-19T02:25:05;2.70;;;2.50;;
52918;SDS011;38793;52.690;6.812;2022-08-19T02:27:31;2.30;;;2.10;;
52918;SDS011;38793;52.690;6.812;2022-08-19T02:29:58;3.38;;;1.77;;
52918;SDS011;38793;52.690;6.812;2022-08-19T02:32:24;2.00;;;1.52;;
52918;SDS011;38793;52.690;6.812;2022-08-19T02:34:49;1.60;;;1.25;;
52918;SDS011;38793;52.690;6.812;2022-08-19T02:37:15;4.70;;;0.90;;
52918;SDS011;38793;52.690;6.812;2022-08-19T02:39:59;2.28;;;1.13;;
52918;SDS011;38793;52.690;6.812;2022-08-19T02:42:25;2.15;;;2.05;;
52918;SDS011;38793;52.690;6.812;2022-08-19T02:44:50;3.72;;;3.35;;
52918;SDS011;38793;52.690;6.812;2022-08-19T02:47:18;5.88;;;5.38;;
52918;SDS011;38793;52.690;6.812;2022-08-19T02:49:44;5.95;;;5.18;;
52918;SDS011;38793;52.690;6.812;2022-08-19T02:52:10;4.70;;;4.30;;
52918;SDS011;38793;52.690;6.812;2022-08-19T02:57:03;3.43;;;1.40;;
52918;SDS011;38793;52.690;6.812;2022-08-19T02:59:29;2.42;;;2.22;;
52918;SDS011;38793;52.690;6.812;2022-08-19T03:01:55;4.63;;;3.67;;
52918;SDS011;38793;52.690;6.812;2022-08-19T03:04:21;4.95;;;3.30;;
52918;SDS011;38793;52.690;6.812;2022-08-19T03:06:48;2.53;;;2.33;;
52918;SDS011;38793;52.690;6.812;2022-08-19T03:11:40;5.97;;;3.45;;
52918;SDS011;38793;52.690;6.812;2022-08-19T03:14:06;4.18;;;1.35;;
52918;SDS011;38793;52.690;6.812;2022-08-19T03:16:34;2.25;;;1.85;;
52918;SDS011;38793;52.690;6.812;2022-08-19T03:19:06;1.73;;;1.63;;
52918;SDS011;38793;52.690;6.812;2022-08-19T03:21:32;1.35;;;1.20;;
52918;SDS011;38793;52.690;6.812;2022-08-19T03:23:59;0.75;;;0.65;;
52918;SDS011;38793;52.690;6.812;2022-08-19T03:26:30;0.52;;;0.35;;
52918;SDS011;38793;52.690;6.812;2022-08-19T03:28:56;6.45;;;1.48;;
52918;SDS011;38793;52.690;6.812;2022-08-19T03:31:23;1.30;;;0.60;;
52918;SDS011;38793;52.690;6.812;2022-08-19T03:33:51;2.35;;;1.00;;
52918;SDS011;38793;52.690;6.812;2022-08-19T03:36:21;0.80;;;0.57;;
52918;SDS011;38793;52.690;6.812;2022-08-19T03:38:51;0.77;;;0.20;;
52918;SDS011;38793;52.690;6.812;2022-08-19T03:41:20;2.38;;;1.33;;
52918;SDS011;38793;52.690;6.812;2022-08-19T03:43:47;5.30;;;4.63;;
52918;SDS011;38793;52.690;6.812;2022-08-19T03:46:15;4.78;;;3.97;;
52918;SDS011;38793;52.690;6.812;2022-08-19T03:48:45;58.25;;;4.53;;
52918;SDS011;38793;52.690;6.812;2022-08-19T03:51:18;4.72;;;1.77;;
52918;SDS011;38793;52.690;6.812;2022-08-19T03:53:46;124.40;;;7.28;;
52918;SDS011;38793;52.690;6.812;2022-08-19T03:56:12;45.88;;;5.95;;
52918;SDS011;38793;52.690;6.812;2022-08-19T03:58:39;17.17;;;3.97;;
52918;SDS011;38793;52.690;6.812;2022-08-19T04:01:09;4.88;;;3.65;;
52918;SDS011;38793;52.690;6.812;2022-08-19T04:03:37;3.20;;;2.90;;
52918;SDS011;38793;52.690;6.812;2022-08-19T04:06:10;4.10;;;3.75;;
52918;SDS011;38793;52.690;6.812;2022-08-19T04:08:38;1.83;;;1.73;;
52918;SDS011;38793;52.690;6.812;2022-08-19T04:11:15;3.80;;;3.50;;
52918;SDS011;38793;52.690;6.812;2022-08-19T04:13:46;4.07;;;3.55;;
52918;SDS011;38793;52.690;6.812;2022-08-19T04:16:12;4.43;;;4.03;;
52918;SDS011;38793;52.690;6.812;2022-08-19T04:18:38;13.02;;;6.57;;
52918;SDS011;38793;52.690;6.812;2022-08-19T04:21:06;4.65;;;4.25;;
52918;SDS011;38793;52.690;6.812;2022-08-19T04:23:33;5.07;;;4.07;;
52918;SDS011;38793;52.690;6.812;2022-08-19T04:26:01;5.47;;;5.03;;
52918;SDS011;38793;52.690;6.812;2022-08-19T04:28:27;5.00;;;4.55;;
52918;SDS011;38793;52.690;6.812;2022-08-19T04:30:54;4.82;;;3.50;;
52918;SDS011;38793;52.690;6.812;2022-08-19T04:33:21;4.20;;;3.80;;
52918;SDS011;38793;52.690;6.812;2022-08-19T04:35:49;4.47;;;3.67;;
52918;SDS011;38793;52.690;6.812;2022-08-19T04:38:17;4.75;;;3.55;;
52918;SDS011;38793;52.690;6.812;2022-08-19T04:40:46;5.55;;;4.35;;
52918;SDS011;38793;52.690;6.812;2022-08-19T04:43:32;2.70;;;2.50;;
52918;SDS011;38793;52.690;6.812;2022-08-19T04:46:03;2.33;;;2.13;;
52918;SDS011;38793;52.690;6.812;2022-08-19T04:48:36;3.97;;;2.53;;
52918;SDS011;38793;52.690;6.812;2022-08-19T04:51:05;2.78;;;2.53;;
52918;SDS011;38793;52.690;6.812;2022-08-19T04:53:33;2.58;;;2.38;;
52918;SDS011;38793;52.690;6.812;2022-08-19T04:56:03;2.30;;;2.10;;
52918;SDS011;38793;52.690;6.812;2022-08-19T04:58:31;3.97;;;3.25;;
52918;SDS011;38793;52.690;6.812;2022-08-19T05:00:57;6.07;;;5.43;;
52918;SDS011;38793;52.690;6.812;2022-08-19T05:03:25;8.45;;;6.65;;
52918;SDS011;38793;52.690;6.812;2022-08-19T05:05:51;5.50;;;4.95;;
52918;SDS011;38793;52.690;6.812;2022-08-19T05:08:18;4.20;;;3.63;;
52918;SDS011;38793;52.690;6.812;2022-08-19T05:10:49;5.90;;;3.05;;
52918;SDS011;38793;52.690;6.812;2022-08-19T05:13:17;4.15;;;3.38;;
52918;SDS011;38793;52.690;6.812;2022-08-19T05:15:53;3.58;;;3.28;;
52918;SDS011;38793;52.690;6.812;2022-08-19T05:18:23;10.55;;;3.67;;
52918;SDS011;38793;52.690;6.812;2022-08-19T05:21:08;8.65;;;3.05;;
52918;SDS011;38793;52.690;6.812;2022-08-19T05:24:04;8.20;;;3.72;;
52918;SDS011;38793;52.690;6.812;2022-08-19T05:26:34;3.60;;;3.25;;
52918;SDS011;38793;52.690;6.812;2022-08-19T05:29:00;16.60;;;4.53;;
52918;SDS011;38793;52.690;6.812;2022-08-19T05:31:26;5.82;;;3.63;;
52918;SDS011;38793;52.690;6.812;2022-08-19T05:33:51;4.95;;;3.40;;
52918;SDS011;38793;52.690;6.812;2022-08-19T05:36:17;4.55;;;4.15;;
52918;SDS011;38793;52.690;6.812;2022-08-19T05:38:44;3.83;;;3.53;;
52918;SDS011;38793;52.690;6.812;2022-08-19T05:41:11;7.97;;;5.55;;
52918;SDS011;38793;52.690;6.812;2022-08-19T05:43:37;4.32;;;3.92;;
52918;SDS011;38793;52.690;6.812;2022-08-19T05:46:04;4.10;;;3.80;;
52918;SDS011;38793;52.690;6.812;2022-08-19T05:48:31;4.50;;;4.10;;
52918;SDS011;38793;52.690;6.812;2022-08-19T05:50:57;3.92;;;3.65;;
52918;SDS011;38793;52.690;6.812;2022-08-19T05:53:24;5.95;;;5.00;;
52918;SDS011;38793;52.690;6.812;2022-08-19T05:55:50;5.00;;;4.53;;
52918;SDS011;38793;52.690;6.812;2022-08-19T05:58:16;5.97;;;5.50;;
52918;SDS011;38793;52.690;6.812;2022-08-19T06:03:08;7.47;;;6.88;;
52918;SDS011;38793;52.690;6.812;2022-08-19T06:05:34;7.82;;;6.35;;
52918;SDS011;38793;52.690;6.812;2022-08-19T06:08:00;8.75;;;7.85;;
52918;SDS011;38793;52.690;6.812;2022-08-19T06:10:25;11.52;;;8.68;;
52918;SDS011;38793;52.690;6.812;2022-08-19T06:12:51;9.48;;;7.30;;
52918;SDS011;38793;52.690;6.812;2022-08-19T06:15:17;10.25;;;9.07;;
52918;SDS011;38793;52.690;6.812;2022-08-19T06:17:42;12.55;;;11.32;;
52918;SDS011;38793;52.690;6.812;2022-08-19T06:20:10;12.00;;;10.80;;
52918;SDS011;38793;52.690;6.812;2022-08-19T06:22:42;20.58;;;12.52;;
52918;SDS011;38793;52.690;6.812;2022-08-19T06:25:13;19.02;;;14.65;;
52918;SDS011;38793;52.690;6.812;2022-08-19T06:27:39;18.65;;;14.05;;
52918;SDS011;38793;52.690;6.812;2022-08-19T06:32:31;24.20;;;18.80;;
52918;SDS011;38793;52.690;6.812;2022-08-19T06:34:57;24.40;;;18.35;;
52918;SDS011;38793;52.690;6.812;2022-08-19T06:37:22;26.30;;;18.60;;
52918;SDS011;38793;52.690;6.812;2022-08-19T06:39:48;25.77;;;20.83;;
52918;SDS011;38793;52.690;6.812;2022-08-19T06:44:43;24.33;;;19.35;;
52918;SDS011;38793;52.690;6.812;2022-08-19T06:47:15;27.05;;;19.70;;
52918;SDS011;38793;52.690;6.812;2022-08-19T06:49:42;21.38;;;17.83;;
52918;SDS011;38793;52.690;6.812;2022-08-19T06:52:08;32.03;;;20.40;;
52918;SDS011;38793;52.690;6.812;2022-08-19T06:54:38;26.48;;;18.55;;
52918;SDS011;38793;52.690;6.812;2022-08-19T06:57:04;24.95;;;19.40;;
52918;SDS011;38793;52.690;6.812;2022-08-19T06:59:31;24.77;;;18.02;;
52918;SDS011;38793;52.690;6.812;2022-08-19T07:01:59;24.30;;;18.50;;
52918;SDS011;38793;52.690;6.812;2022-08-19T07:04:30;23.55;;;17.52;;
52918;SDS011;38793;52.690;6.812;2022-08-19T07:07:02;20.25;;;17.38;;
52918;SDS011;38793;52.690;6.812;2022-08-19T07:09:35;21.42;;;18.00;;
52918;SDS011;38793;52.690;6.812;2022-08-19T07:12:03;18.80;;;16.80;;
52918;SDS011;38793;52.690;6.812;2022-08-19T07:14:31;22.02;;;17.67;;
52918;SDS011;38793;52.690;6.812;2022-08-19T07:16:57;20.17;;;17.45;;
52918;SDS011;38793;52.690;6.812;2022-08-19T07:19:24;25.15;;;17.95;;
52918;SDS011;38793;52.690;6.812;2022-08-19T07:21:54;18.70;;;15.63;;
52918;SDS011;38793;52.690;6.812;2022-08-19T07:24:24;17.90;;;16.00;;
52918;SDS011;38793;52.690;6.812;2022-08-19T07:26:51;22.98;;;16.85;;
52918;SDS011;38793;52.690;6.812;2022-08-19T07:29:20;19.17;;;17.13;;
52918;SDS011;38793;52.690;6.812;2022-08-19T07:31:48;19.50;;;17.38;;
52918;SDS011;38793;52.690;6.812;2022-08-19T07:34:15;21.50;;;16.85;;
52918;SDS011;38793;52.690;6.812;2022-08-19T07:36:42;21.42;;;18.05;;
52918;SDS011;38793;52.690;6.812;2022-08-19T07:39:13;19.58;;;16.73;;
52918;SDS011;38793;52.690;6.812;2022-08-19T07:41:41;22.25;;;17.63;;
52918;SDS011;38793;52.690;6.812;2022-08-19T07:44:07;20.58;;;15.90;;
52918;SDS011;38793;52.690;6.812;2022-08-19T07:46:34;23.08;;;17.27;;
52918;SDS011;38793;52.690;6.812;2022-08-19T07:49:02;23.70;;;18.02;;
52918;SDS011;38793;52.690;6.812;2022-08-19T07:51:28;19.65;;;16.95;;
52918;SDS011;38793;52.690;6.812;2022-08-19T07:53:54;19.40;;;17.02;;
52918;SDS011;38793;52.690;6.812;2022-08-19T07:58:48;18.90;;;16.90;;
52918;SDS011;38793;52.690;6.812;2022-08-19T08:01:19;19.00;;;14.55;;
52918;SDS011;38793;52.690;6.812;2022-08-19T08:03:49;19.17;;;16.23;;
52918;SDS011;38793;52.690;6.812;2022-08-19T08:06:34;18.77;;;15.93;;
52918;SDS011;38793;52.690;6.812;2022-08-19T08:09:21;15.90;;;14.30;;
52918;SDS011;38793;52.690;6.812;2022-08-19T08:12:03;17.35;;;15.07;;
52918;SDS011;38793;52.690;6.812;2022-08-19T08:14:56;16.98;;;14.40;;
52918;SDS011;38793;52.690;6.812;2022-08-19T08:19:49;16.27;;;13.55;;
52918;SDS011;38793;52.690;6.812;2022-08-19T08:22:16;13.75;;;12.38;;
52918;SDS011;38793;52.690;6.812;2022-08-19T08:25:07;15.70;;;13.32;;
52918;SDS011;38793;52.690;6.812;2022-08-19T08:27:39;12.50;;;11.30;;
52918;SDS011;38793;52.690;6.812;2022-08-19T08:30:09;18.13;;;12.63;;
52918;SDS011;38793;52.690;6.812;2022-08-19T08:32:37;15.35;;;13.48;;
52918;SDS011;38793;52.690;6.812;2022-08-19T08:35:07;17.10;;;13.32;;
52918;SDS011;38793;52.690;6.812;2022-08-19T08:37:36;13.90;;;12.52;;
52918;SDS011;38793;52.690;6.812;2022-08-19T08:42:34;20.25;;;13.82;;
52918;SDS011;38793;52.690;6.812;2022-08-19T08:45:05;16.27;;;13.07;;
52918;SDS011;38793;52.690;6.812;2022-08-19T08:47:40;17.05;;;14.25;;
52918;SDS011;38793;52.690;6.812;2022-08-19T08:50:09;15.23;;;13.18;;
52918;SDS011;38793;52.690;6.812;2022-08-19T08:52:42;14.20;;;12.40;;
52918;SDS011;38793;52.690;6.812;2022-08-19T08:55:14;16.23;;;14.70;;
52918;SDS011;38793;52.690;6.812;2022-08-19T09:00:18;13.68;;;12.48;;
52918;SDS011;38793;52.690;6.812;2022-08-19T09:02:47;12.75;;;11.32;;
52918;SDS011;38793;52.690;6.812;2022-08-19T09:05:13;16.05;;;11.52;;
52918;SDS011;38793;52.690;6.812;2022-08-19T09:07:58;16.70;;;12.45;;
52918;SDS011;38793;52.690;6.812;2022-08-19T09:10:35;14.57;;;12.30;;
52918;SDS011;38793;52.690;6.812;2022-08-19T09:15:52;13.93;;;12.48;;
52918;SDS011;38793;52.690;6.812;2022-08-19T09:18:22;14.27;;;12.77;;
52918;SDS011;38793;52.690;6.812;2022-08-19T09:20:48;16.63;;;14.82;;
52918;SDS011;38793;52.690;6.812;2022-08-19T09:23:13;16.13;;;14.25;;
52918;SDS011;38793;52.690;6.812;2022-08-19T09:25:40;15.20;;;13.60;;
52918;SDS011;38793;52.690;6.812;2022-08-19T09:28:06;14.88;;;13.13;;
52918;SDS011;38793;52.690;6.812;2022-08-19T09:30:33;14.63;;;13.15;;
52918;SDS011;38793;52.690;6.812;2022-08-19T09:33:04;15.07;;;13.68;;
52918;SDS011;38793;52.690;6.812;2022-08-19T09:35:31;18.40;;;13.88;;
52918;SDS011;38793;52.690;6.812;2022-08-19T09:37:58;15.07;;;13.52;;
52918;SDS011;38793;52.690;6.812;2022-08-19T09:40:24;14.68;;;12.75;;
52918;SDS011;38793;52.690;6.812;2022-08-19T09:42:51;13.88;;;12.57;;
52918;SDS011;38793;52.690;6.812;2022-08-19T09:45:18;14.48;;;13.00;;
52918;SDS011;38793;52.690;6.812;2022-08-19T09:47:51;13.77;;;12.35;;
52918;SDS011;38793;52.690;6.812;2022-08-19T09:50:18;31.20;;;16.05;;
52918;SDS011;38793;52.690;6.812;2022-08-19T09:52:44;16.50;;;14.82;;
52918;SDS011;38793;52.690;6.812;2022-08-19T09:55:11;18.50;;;16.23;;
52918;SDS011;38793;52.690;6.812;2022-08-19T09:57:37;20.65;;;18.13;;
52918;SDS011;38793;52.690;6.812;2022-08-19T10:00:04;20.60;;;16.13;;
52918;SDS011;38793;52.690;6.812;2022-08-19T10:02:32;17.45;;;15.68;;
52918;SDS011;38793;52.690;6.812;2022-08-19T10:04:58;18.25;;;16.42;;
52918;SDS011;38793;52.690;6.812;2022-08-19T10:07:42;13.80;;;12.57;;
52918;SDS011;38793;52.690;6.812;2022-08-19T10:10:07;12.05;;;10.95;;
52918;SDS011;38793;52.690;6.812;2022-08-19T10:12:34;13.20;;;11.93;;
52918;SDS011;38793;52.690;6.812;2022-08-19T10:15:00;14.43;;;12.45;;
52918;SDS011;38793;52.690;6.812;2022-08-19T10:17:26;12.57;;;11.27;;
52918;SDS011;38793;52.690;6.812;2022-08-19T10:19:52;11.80;;;10.57;;
52918;SDS011;38793;52.690;6.812;2022-08-19T10:22:18;14.95;;;13.45;;
52918;SDS011;38793;52.690;6.812;2022-08-19T10:24:47;11.02;;;9.82;;
52918;SDS011;38793;52.690;6.812;2022-08-19T10:27:14;11.57;;;9.50;;
52918;SDS011;38793;52.690;6.812;2022-08-19T10:29:40;12.02;;;10.88;;
52918;SDS011;38793;52.690;6.812;2022-08-19T10:32:06;11.63;;;10.40;;
52918;SDS011;38793;52.690;6.812;2022-08-19T10:34:34;13.90;;;9.25;;
52918;SDS011;38793;52.690;6.812;2022-08-19T10:37:01;9.68;;;8.68;;
52918;SDS011;38793;52.690;6.812;2022-08-19T10:39:30;12.45;;;10.20;;
52918;SDS011;38793;52.690;6.812;2022-08-19T10:42:03;10.48;;;9.57;;
52918;SDS011;38793;52.690;6.812;2022-08-19T10:44:33;11.82;;;10.77;;
52918;SDS011;38793;52.690;6.812;2022-08-19T10:47:00;12.57;;;9.95;;
52918;SDS011;38793;52.690;6.812;2022-08-19T10:49:26;9.70;;;8.38;;
52918;SDS011;38793;52.690;6.812;2022-08-19T10:51:52;11.48;;;10.27;;
52918;SDS011;38793;52.690;6.812;2022-08-19T10:54:36;14.90;;;11.73;;
52918;SDS011;38793;52.690;6.812;2022-08-19T10:57:20;10.10;;;9.10;;
52918;SDS011;38793;52.690;6.812;2022-08-19T10:59:49;10.32;;;9.07;;
52918;SDS011;38793;52.690;6.812;2022-08-19T11:02:14;10.32;;;9.32;;
52918;SDS011;38793;52.690;6.812;2022-08-19T11:04:40;7.82;;;7.20;;
52918;SDS011;38793;52.690;6.812;2022-08-19T11:07:06;7.00;;;6.40;;
52918;SDS011;38793;52.690;6.812;2022-08-19T11:09:36;10.23;;;9.25;;
52918;SDS011;38793;52.690;6.812;2022-08-19T11:12:04;7.43;;;6.82;;
52918;SDS011;38793;52.690;6.812;2022-08-19T11:14:30;8.90;;;8.07;;
52918;SDS011;38793;52.690;6.812;2022-08-19T11:16:57;9.23;;;8.32;;
52918;SDS011;38793;52.690;6.812;2022-08-19T11:19:23;8.57;;;7.95;;
52918;SDS011;38793;52.690;6.812;2022-08-19T11:21:48;9.68;;;8.50;;
52918;SDS011;38793;52.690;6.812;2022-08-19T11:24:17;10.00;;;8.35;;
52918;SDS011;38793;52.690;6.812;2022-08-19T11:26:45;11.48;;;9.73;;
52918;SDS011;38793;52.690;6.812;2022-08-19T11:29:14;9.32;;;8.52;;
52918;SDS011;38793;52.690;6.812;2022-08-19T11:31:42;11.23;;;10.20;;
52918;SDS011;38793;52.690;6.812;2022-08-19T11:34:10;11.23;;;10.23;;
52918;SDS011;38793;52.690;6.812;2022-08-19T11:36:40;10.98;;;9.98;;
52918;SDS011;38793;52.690;6.812;2022-08-19T11:39:08;10.43;;;8.27;;
52918;SDS011;38793;52.690;6.812;2022-08-19T11:41:34;12.93;;;9.27;;
52918;SDS011;38793;52.690;6.812;2022-08-19T11:44:00;27.13;;;8.70;;
52918;SDS011;38793;52.690;6.812;2022-08-19T11:46:27;9.77;;;8.90;;
52918;SDS011;38793;52.690;6.812;2022-08-19T11:48:57;8.57;;;7.72;;
52918;SDS011;38793;52.690;6.812;2022-08-19T11:51:25;11.38;;;10.10;;
52918;SDS011;38793;52.690;6.812;2022-08-19T11:53:52;7.93;;;7.13;;
52918;SDS011;38793;52.690;6.812;2022-08-19T11:56:19;10.35;;;7.05;;
52918;SDS011;38793;52.690;6.812;2022-08-19T11:58:45;8.07;;;6.20;;
52918;SDS011;38793;52.690;6.812;2022-08-19T12:01:12;6.25;;;5.72;;
52918;SDS011;38793;52.690;6.812;2022-08-19T12:03:41;7.85;;;7.05;;
52918;SDS011;38793;52.690;6.812;2022-08-19T12:06:10;9.88;;;7.95;;
52918;SDS011;38793;52.690;6.812;2022-08-19T12:08:38;12.73;;;7.20;;
52918;SDS011;38793;52.690;6.812;2022-08-19T12:11:04;8.48;;;7.68;;
52918;SDS011;38793;52.690;6.812;2022-08-19T12:13:32;9.07;;;7.30;;
52918;SDS011;38793;52.690;6.812;2022-08-19T12:15:59;7.90;;;7.18;;
52918;SDS011;38793;52.690;6.812;2022-08-19T12:18:25;7.40;;;6.80;;
52918;SDS011;38793;52.690;6.812;2022-08-19T12:20:51;10.80;;;7.43;;
52918;SDS011;38793;52.690;6.812;2022-08-19T12:23:17;8.00;;;5.18;;
52918;SDS011;38793;52.690;6.812;2022-08-19T12:25:44;7.72;;;7.03;;
52918;SDS011;38793;52.690;6.812;2022-08-19T12:28:18;10.32;;;7.93;;
52918;SDS011;38793;52.690;6.812;2022-08-19T12:30:44;7.60;;;7.00;;
52918;SDS011;38793;52.690;6.812;2022-08-19T12:33:10;9.07;;;7.63;;
52918;SDS011;38793;52.690;6.812;2022-08-19T12:35:39;7.68;;;6.97;;
52918;SDS011;38793;52.690;6.812;2022-08-19T12:38:09;7.53;;;6.82;;
52918;SDS011;38793;52.690;6.812;2022-08-19T12:40:35;4.50;;;4.20;;
52918;SDS011;38793;52.690;6.812;2022-08-19T12:43:00;6.03;;;4.85;;
52918;SDS011;38793;52.690;6.812;2022-08-19T12:45:26;7.57;;;4.93;;
52918;SDS011;38793;52.690;6.812;2022-08-19T12:47:52;5.72;;;5.32;;
52918;SDS011;38793;52.690;6.812;2022-08-19T12:50:18;6.07;;;4.35;;
52918;SDS011;38793;52.690;6.812;2022-08-19T12:52:46;6.05;;;5.45;;
52918;SDS011;38793;52.690;6.812;2022-08-19T12:55:13;5.15;;;4.75;;
52918;SDS011;38793;52.690;6.812;2022-08-19T12:57:39;6.80;;;6.10;;
52918;SDS011;38793;52.690;6.812;2022-08-19T13:00:09;10.40;;;9.18;;
52918;SDS011;38793;52.690;6.812;2022-08-19T13:02:38;11.55;;;9.02;;
52918;SDS011;38793;52.690;6.812;2022-08-19T13:05:06;7.82;;;7.13;;
52918;SDS011;38793;52.690;6.812;2022-08-19T13:07:33;8.30;;;7.55;;
52918;SDS011;38793;52.690;6.812;2022-08-19T13:09:59;8.93;;;7.47;;
52918;SDS011;38793;52.690;6.812;2022-08-19T13:12:25;10.95;;;6.47;;
52918;SDS011;38793;52.690;6.812;2022-08-19T13:14:51;9.52;;;6.15;;
52918;SDS011;38793;52.690;6.812;2022-08-19T13:17:18;4.80;;;4.40;;
52918;SDS011;38793;52.690;6.812;2022-08-19T13:19:44;9.63;;;8.68;;
52918;SDS011;38793;52.690;6.812;2022-08-19T13:22:10;11.40;;;9.80;;
52918;SDS011;38793;52.690;6.812;2022-08-19T13:24:36;9.60;;;8.57;;
52918;SDS011;38793;52.690;6.812;2022-08-19T13:27:02;11.73;;;9.68;;
52918;SDS011;38793;52.690;6.812;2022-08-19T13:29:27;10.77;;;9.77;;
52918;SDS011;38793;52.690;6.812;2022-08-19T13:32:12;9.25;;;8.35;;
52918;SDS011;38793;52.690;6.812;2022-08-19T13:34:56;8.95;;;8.15;;
52918;SDS011;38793;52.690;6.812;2022-08-19T13:37:22;11.25;;;10.18;;
52918;SDS011;38793;52.690;6.812;2022-08-19T13:40:05;11.65;;;10.50;;
52918;SDS011;38793;52.690;6.812;2022-08-19T13:42:37;9.60;;;8.77;;
52918;SDS011;38793;52.690;6.812;2022-08-19T13:45:07;10.27;;;8.98;;
52918;SDS011;38793;52.690;6.812;2022-08-19T13:47:33;9.85;;;7.60;;
52918;SDS011;38793;52.690;6.812;2022-08-19T13:50:00;11.95;;;8.45;;
52918;SDS011;38793;52.690;6.812;2022-08-19T13:52:27;6.95;;;6.25;;
52918;SDS011;38793;52.690;6.812;2022-08-19T13:54:54;9.25;;;8.00;;
52918;SDS011;38793;52.690;6.812;2022-08-19T13:57:19;11.07;;;9.98;;
52918;SDS011;38793;52.690;6.812;2022-08-19T13:59:45;10.98;;;7.63;;
52918;SDS011;38793;52.690;6.812;2022-08-19T14:02:11;10.32;;;8.40;;
52918;SDS011;38793;52.690;6.812;2022-08-19T14:04:36;9.50;;;8.55;;
52918;SDS011;38793;52.690;6.812;2022-08-19T14:07:02;8.90;;;7.22;;
52918;SDS011;38793;52.690;6.812;2022-08-19T14:09:28;8.48;;;7.45;;
52918;SDS011;38793;52.690;6.812;2022-08-19T14:11:54;5.50;;;5.10;;
52918;SDS011;38793;52.690;6.812;2022-08-19T14:14:20;5.88;;;5.38;;
52918;SDS011;38793;52.690;6.812;2022-08-19T14:16:46;5.38;;;4.97;;
52918;SDS011;38793;52.690;6.812;2022-08-19T14:19:12;5.20;;;4.80;;
52918;SDS011;38793;52.690;6.812;2022-08-19T14:21:37;5.00;;;4.20;;
52918;SDS011;38793;52.690;6.812;2022-08-19T14:24:04;4.18;;;3.90;;
52918;SDS011;38793;52.690;6.812;2022-08-19T14:26:29;5.32;;;4.82;;
52918;SDS011;38793;52.690;6.812;2022-08-19T14:28:55;5.75;;;3.67;;
52918;SDS011;38793;52.690;6.812;2022-08-19T14:31:22;3.33;;;3.03;;
52918;SDS011;38793;52.690;6.812;2022-08-19T14:33:48;2.25;;;2.15;;
52918;SDS011;38793;52.690;6.812;2022-08-19T14:36:15;7.75;;;1.88;;
52918;SDS011;38793;52.690;6.812;2022-08-19T14:38:42;2.92;;;1.67;;
52918;SDS011;38793;52.690;6.812;2022-08-19T14:41:18;4.35;;;2.60;;
52918;SDS011;38793;52.690;6.812;2022-08-19T14:43:47;4.63;;;4.20;;
52918;SDS011;38793;52.690;6.812;2022-08-19T14:46:16;5.80;;;4.38;;
52918;SDS011;38793;52.690;6.812;2022-08-19T14:48:47;5.82;;;4.68;;
52918;SDS011;38793;52.690;6.812;2022-08-19T14:51:16;4.18;;;3.85;;
52918;SDS011;38793;52.690;6.812;2022-08-19T14:53:42;7.00;;;3.05;;
52918;SDS011;38793;52.690;6.812;2022-08-19T14:56:12;3.15;;;1.88;;
52918;SDS011;38793;52.690;6.812;2022-08-19T14:58:40;6.50;;;2.65;;
52918;SDS011;38793;52.690;6.812;2022-08-19T15:01:07;2.88;;;2.67;;
52918;SDS011;38793;52.690;6.812;2022-08-19T15:03:34;5.78;;;4.88;;
52918;SDS011;38793;52.690;6.812;2022-08-19T15:06:00;4.55;;;3.88;;
52918;SDS011;38793;52.690;6.812;2022-08-19T15:08:28;21.20;;;6.25;;
52918;SDS011;38793;52.690;6.812;2022-08-19T15:10:56;9.15;;;6.18;;
52918;SDS011;38793;52.690;6.812;2022-08-19T15:13:22;10.30;;;7.13;;
52918;SDS011;38793;52.690;6.812;2022-08-19T15:15:49;8.90;;;7.20;;
52918;SDS011;38793;52.690;6.812;2022-08-19T15:18:16;9.27;;;5.85;;
52918;SDS011;38793;52.690;6.812;2022-08-19T15:20:43;6.32;;;5.68;;